Time;durP1;ratioP1;P1;durP2;ratioP2;P2;SDS_P1;SDS_P2;PMS_P1;PMS_P2;Temp;Humidity;BMP_temperature;BMP_pressure;BME280_temperature;BME280_humidity;BME280_pressure;Samples;Min_cycle;Max_cycle;Signal;HPM_P1;HPM_P2
2022/01/24 00:01:19;;;;;;;27.55;13.75;;;-3.50;88.20;;;;;;5003163;28;20022;-70
2022/01/24 00:03:45;;;;;;;25.90;13.05;;;-3.50;89.90;;;;;;5001759;28;20120;-69
2022/01/24 00:06:16;;;;;;;17.23;9.98;;;-3.30;90.50;;;;;;5002926;28;20029;-70
2022/01/24 00:08:42;;;;;;;6.03;3.72;;;-3.20;90.50;;;;;;4996779;28;20068;-69
2022/01/24 00:11:13;;;;;;;5.78;3.05;;;-3.20;87.60;;;;;;5000217;28;20037;-72
2022/01/24 00:27:09;;;;;;;7.28;3.63;;;-4.10;89.80;;;;;;5001951;28;20044;-70
2022/01/24 00:29:35;;;;;;;7.85;3.95;;;-4.10;89.10;;;;;;4998400;28;20033;-70
2022/01/24 00:32:00;;;;;;;6.57;3.42;;;-4.10;89.60;;;;;;5001129;28;20037;-70
2022/01/24 00:34:26;;;;;;;4.53;2.83;;;-4.10;90.10;;;;;;5000404;28;20392;-69
2022/01/24 00:36:53;;;;;;;4.30;2.92;;;-4.20;90.00;;;;;;5000189;28;20027;-70
2022/01/24 00:39:20;;;;;;;8.27;4.65;;;-4.20;89.90;;;;;;5002309;28;20026;-70
2022/01/24 00:46:57;;;;;;;9.60;5.43;;;-4.00;89.70;;;;;;5002177;28;20140;-70
2022/01/24 00:49:50;;;;;;;10.02;4.80;;;-4.00;89.80;;;;;;4999433;28;20484;-69
2022/01/24 00:55:01;;;;;;;5.03;3.63;;;-4.10;90.00;;;;;;5001575;28;20420;-71
2022/01/24 00:57:27;;;;;;;6.82;3.20;;;-4.20;88.90;;;;;;4999497;28;20241;-71
2022/01/24 00:59:52;;;;;;;6.43;3.58;;;-4.30;88.50;;;;;;4997211;28;20480;-72
2022/01/24 01:02:19;;;;;;;6.65;3.08;;;-4.40;88.90;;;;;;5002066;28;20508;-71
2022/01/24 01:07:19;;;;;;;7.07;3.47;;;-4.40;90.00;;;;;;4999248;28;20045;-69
2022/01/24 01:18:15;;;;;;;15.30;8.05;;;-4.10;90.20;;;;;;5000354;28;20049;-71
2022/01/24 01:23:28;;;;;;;9.90;3.95;;;-4.00;90.30;;;;;;4997582;28;20038;-70
2022/01/24 01:25:55;;;;;;;6.38;3.80;;;-4.20;91.60;;;;;;5001524;28;20042;-71
2022/01/24 01:28:22;;;;;;;5.15;3.60;;;-4.40;91.40;;;;;;5001447;28;20064;-71
2022/01/24 01:30:51;;;;;;;4.88;3.30;;;-4.50;91.50;;;;;;4998828;28;20104;-71
2022/01/24 01:36:13;;;;;;;6.78;3.50;;;-4.70;89.20;;;;;;4970836;28;20050;-72
2022/01/24 01:52:50;;;;;;;5.93;3.08;;;-5.10;90.10;;;;;;5002391;28;20048;-71
2022/01/24 01:55:36;;;;;;;5.85;3.45;;;-5.20;90.70;;;;;;5000538;28;20081;-71
2022/01/24 01:58:03;;;;;;;7.13;3.78;;;-5.20;90.60;;;;;;5005536;28;20062;-71
2022/01/24 02:00:29;;;;;;;9.35;4.75;;;-5.10;90.60;;;;;;5003736;28;20022;-71
2022/01/24 02:02:54;;;;;;;18.13;10.85;;;-4.90;90.80;;;;;;5001797;28;20065;-72
2022/01/24 02:05:21;;;;;;;16.95;8.80;;;-4.80;91.30;;;;;;4999077;28;20405;-71
2022/01/24 02:07:51;;;;;;;15.55;8.40;;;-4.60;91.00;;;;;;5002918;28;20030;-70
2022/01/24 02:10:18;;;;;;;23.20;11.60;;;-4.50;90.90;;;;;;5003002;28;20101;-70
2022/01/24 02:12:45;;;;;;;16.65;8.23;;;-4.70;91.00;;;;;;5003334;28;20026;-68
2022/01/24 02:15:14;;;;;;;129.13;48.97;;;-5.30;91.20;;;;;;5006572;28;20077;-68
2022/01/24 02:18:07;;;;;;;12.35;6.85;;;-5.50;91.20;;;;;;5003350;28;20076;-69
2022/01/24 02:25:54;;;;;;;10.57;5.95;;;-5.60;91.90;;;;;;5000746;28;20665;-68
2022/01/24 02:28:22;;;;;;;18.33;7.80;;;-5.40;91.80;;;;;;5005677;28;20022;-70
2022/01/24 02:30:58;;;;;;;14.88;7.07;;;-5.30;91.60;;;;;;5003519;28;20057;-70
2022/01/24 02:33:24;;;;;;;11.98;6.22;;;-5.40;92.00;;;;;;5006341;28;20045;-71
2022/01/24 02:35:50;;;;;;;12.70;5.95;;;-5.40;91.90;;;;;;5004377;28;20121;-70
2022/01/24 02:46:01;;;;;;;;;;;-5.40;91.90;;;;;;5005337;28;20057;-70
2022/01/24 02:49:06;;;;;;;10.30;5.55;;;-5.30;91.20;;;;;;5007618;28;20179;-70
2022/01/24 02:54:15;;;;;;;8.07;4.53;;;-5.30;90.70;;;;;;5004493;28;20056;-70
2022/01/24 02:56:41;;;;;;;8.05;3.45;;;-5.40;90.80;;;;;;5003011;28;20037;-70
2022/01/24 02:59:06;;;;;;;8.63;4.07;;;-5.30;91.00;;;;;;5001773;28;20496;-70
2022/01/24 03:01:32;;;;;;;7.07;3.65;;;-5.40;90.30;;;;;;4998908;28;20037;-70
2022/01/24 03:03:57;;;;;;;9.52;4.28;;;-5.50;89.70;;;;;;5003573;28;20152;-70
2022/01/24 03:06:23;;;;;;;6.70;3.47;;;-5.60;90.20;;;;;;5001787;28;20516;-69
2022/01/24 03:08:49;;;;;;;7.07;3.75;;;-5.60;90.30;;;;;;5001503;28;20056;-70
2022/01/24 03:11:16;;;;;;;6.93;4.00;;;-5.60;90.60;;;;;;5003021;28;20029;-70
2022/01/24 03:13:41;;;;;;;6.68;4.15;;;-5.60;90.90;;;;;;5003399;28;20092;-70
2022/01/24 03:16:08;;;;;;;6.13;3.88;;;-5.60;90.80;;;;;;5001297;28;21145;-70
2022/01/24 03:18:34;;;;;;;6.07;3.42;;;-5.60;91.00;;;;;;5002352;28;20077;-69
2022/01/24 03:21:00;;;;;;;7.10;4.13;;;-5.50;90.70;;;;;;5002811;28;20108;-70
2022/01/24 03:23:27;;;;;;;11.23;5.68;;;-5.40;90.40;;;;;;5004455;28;20022;-70
2022/01/24 03:25:53;;;;;;;12.20;5.47;;;-5.30;90.50;;;;;;5001618;28;20070;-69
2022/01/24 03:28:19;;;;;;;10.00;5.78;;;-5.30;91.40;;;;;;5002038;28;20164;-70
2022/01/24 03:30:45;;;;;;;12.63;7.15;;;-5.30;91.10;;;;;;5000228;28;20026;-70
2022/01/24 03:33:11;;;;;;;15.05;9.40;;;-5.40;91.20;;;;;;5002799;28;20057;-70
2022/01/24 03:35:40;;;;;;;20.83;11.48;;;-5.30;91.20;;;;;;5000479;28;20033;-70
2022/01/24 03:38:06;;;;;;;12.23;6.85;;;-5.20;91.20;;;;;;5000800;28;20068;-70
2022/01/24 03:40:31;;;;;;;6.70;3.90;;;-5.30;91.20;;;;;;5002761;28;20498;-71
2022/01/24 03:42:57;;;;;;;7.10;3.72;;;-5.40;90.10;;;;;;5002238;28;20572;-70
2022/01/24 03:45:36;;;;;;;5.25;3.63;;;-5.50;89.50;;;;;;4999751;28;20033;-69
2022/01/24 03:48:08;;;;;;;8.45;3.85;;;-5.60;89.30;;;;;;4999954;28;20038;-70
2022/01/24 03:50:33;;;;;;;8.05;3.97;;;-5.70;89.80;;;;;;4999170;28;20042;-70
2022/01/24 03:52:59;;;;;;;8.25;4.10;;;-5.70;90.10;;;;;;5001713;28;20030;-69
2022/01/24 03:55:24;;;;;;;7.55;4.57;;;-5.80;89.50;;;;;;4998933;28;20054;-70
2022/01/24 03:57:50;;;;;;;8.60;4.63;;;-5.70;90.10;;;;;;5000832;28;20037;-70
2022/01/24 04:00:16;;;;;;;8.30;4.78;;;-5.70;90.10;;;;;;5000221;28;20033;-70
2022/01/24 04:02:42;;;;;;;10.00;5.60;;;-5.60;90.10;;;;;;5000283;28;20475;-70
2022/01/24 04:05:08;;;;;;;8.77;4.88;;;-5.60;90.30;;;;;;4998613;28;20030;-70
2022/01/24 04:07:34;;;;;;;17.63;8.45;;;-5.60;90.30;;;;;;4998929;28;20030;-70
2022/01/24 04:10:06;;;;;;;25.15;13.35;;;-5.70;90.90;;;;;;4999951;28;20042;-69
2022/01/24 04:12:32;;;;;;;24.05;13.55;;;-5.50;91.20;;;;;;5001952;28;20029;-70
2022/01/24 04:17:39;;;;;;;36.78;19.85;;;-5.50;91.00;;;;;;5000453;28;20049;-70
2022/01/24 04:22:52;;;;;;;16.90;9.40;;;-5.50;90.90;;;;;;4999608;28;20512;-70
2022/01/24 04:25:23;;;;;;;8.60;5.10;;;-5.50;90.90;;;;;;5001647;28;20034;-70
2022/01/24 04:27:50;;;;;;;7.32;4.40;;;-5.60;90.50;;;;;;5001801;28;20033;-70
2022/01/24 04:30:16;;;;;;;7.75;4.20;;;-5.70;89.60;;;;;;4998766;28;20030;-70
2022/01/24 04:32:41;;;;;;;7.90;3.95;;;-5.80;89.80;;;;;;5001995;28;20080;-70
2022/01/24 04:35:07;;;;;;;10.20;4.45;;;-6.00;90.10;;;;;;5000972;28;20096;-70
2022/01/24 04:37:33;;;;;;;8.00;3.90;;;-6.10;90.40;;;;;;4999255;28;20085;-70
2022/01/24 04:39:59;;;;;;;7.38;4.93;;;-6.10;90.70;;;;;;5003247;28;20022;-71
2022/01/24 04:42:40;;;;;;;10.38;5.60;;;-6.20;91.00;;;;;;5001856;28;20092;-69
2022/01/24 04:45:35;;;;;;;10.93;5.95;;;-6.20;91.60;;;;;;5001673;28;20041;-70
2022/01/24 04:51:00;;;;;;;8.85;4.82;;;-6.00;91.70;;;;;;5001428;28;20482;-70
2022/01/24 04:55:55;;;;;;;12.88;7.55;;;-6.00;91.10;;;;;;5001168;28;20056;-70
2022/01/24 04:58:20;;;;;;;16.92;9.60;;;-6.00;91.30;;;;;;5002544;28;20043;-70
2022/01/24 05:00:46;;;;;;;17.80;9.93;;;-5.90;92.00;;;;;;5003821;28;20034;-70
2022/01/24 05:03:12;;;;;;;14.02;7.10;;;-5.70;92.00;;;;;;4999043;28;20060;-69
2022/01/24 05:05:37;;;;;;;16.83;8.73;;;-5.70;91.10;;;;;;5000452;28;20097;-68
2022/01/24 05:08:05;;;;;;;23.88;11.05;;;-5.80;91.10;;;;;;5002465;28;20049;-71
2022/01/24 05:10:40;;;;;;;30.50;14.05;;;-5.70;91.60;;;;;;5001662;28;20026;-71
2022/01/24 05:24:10;;;;;;;11.07;5.53;;;-6.00;90.10;;;;;;4984983;28;20404;-71
2022/01/24 05:26:35;;;;;;;10.73;5.45;;;-6.10;90.10;;;;;;5001991;28;20041;-72
2022/01/24 05:29:01;;;;;;;18.42;8.35;;;-6.10;90.00;;;;;;5006084;28;20034;-71
2022/01/24 05:31:26;;;;;;;18.08;8.48;;;-6.10;90.30;;;;;;5005491;28;20092;-71
2022/01/24 05:33:52;;;;;;;29.88;13.20;;;-6.10;90.30;;;;;;5005837;28;20037;-71
2022/01/24 05:36:18;;;;;;;10.57;6.25;;;-6.10;90.70;;;;;;5000257;28;20030;-72
2022/01/24 05:38:43;;;;;;;9.68;4.97;;;-6.20;90.80;;;;;;5002281;28;20485;-71
2022/01/24 05:41:09;;;;;;;14.15;6.38;;;-6.10;90.90;;;;;;5006041;28;20517;-71
2022/01/24 05:43:35;;;;;;;8.88;5.07;;;-6.10;91.00;;;;;;5004908;28;20038;-71
2022/01/24 05:46:01;;;;;;;10.25;5.43;;;-6.10;90.70;;;;;;5004621;28;20034;-72
2022/01/24 05:48:27;;;;;;;6.78;4.47;;;-6.20;90.00;;;;;;5004301;28;20046;-71
2022/01/24 05:50:52;;;;;;;8.13;4.07;;;-6.30;89.60;;;;;;5006048;28;20030;-72
2022/01/24 05:53:18;;;;;;;7.25;3.88;;;-6.40;89.70;;;;;;5005045;28;20026;-72
2022/01/24 05:55:44;;;;;;;7.05;4.60;;;-6.50;89.00;;;;;;5006772;28;20443;-71
2022/01/24 05:58:09;;;;;;;7.97;4.57;;;-6.50;89.10;;;;;;5002770;28;20101;-70
2022/01/24 06:00:35;;;;;;;6.07;4.10;;;-6.60;89.40;;;;;;5004218;28;20037;-71
2022/01/24 06:03:00;;;;;;;10.40;4.43;;;-6.70;90.00;;;;;;5002590;28;20039;-70
2022/01/24 06:05:27;;;;;;;8.25;4.53;;;-6.70;90.20;;;;;;5003562;28;20104;-70
2022/01/24 06:07:54;;;;;;;8.60;4.78;;;-6.70;90.20;;;;;;4999983;28;20034;-71
2022/01/24 06:10:20;;;;;;;7.97;4.50;;;-6.70;90.30;;;;;;5002211;28;20030;-70
2022/01/24 06:12:45;;;;;;;8.35;4.97;;;-6.70;90.30;;;;;;5004976;28;20033;-71
2022/01/24 06:15:12;;;;;;;8.73;5.63;;;-6.70;90.50;;;;;;5003860;28;20498;-70
2022/01/24 06:17:38;;;;;;;11.07;6.20;;;-6.60;90.30;;;;;;5002442;28;20030;-71
2022/01/24 06:20:05;;;;;;;14.98;6.65;;;-6.40;90.30;;;;;;5004564;28;20044;-69
2022/01/24 06:22:31;;;;;;;17.92;9.18;;;-6.30;90.30;;;;;;5005201;28;20092;-70
2022/01/24 06:24:57;;;;;;;22.55;11.93;;;-6.30;90.70;;;;;;5000709;28;20498;-70
2022/01/24 06:27:22;;;;;;;39.83;18.63;;;-6.20;90.60;;;;;;5001074;28;20597;-70
2022/01/24 06:29:48;;;;;;;29.45;16.60;;;-6.20;90.80;;;;;;5002152;28;20482;-71
2022/01/24 06:32:14;;;;;;;28.00;15.98;;;-6.10;90.90;;;;;;5003886;28;20196;-68
2022/01/24 06:34:40;;;;;;;29.90;16.13;;;-6.00;90.90;;;;;;5002525;28;20022;-70
2022/01/24 06:37:06;;;;;;;31.73;16.88;;;-6.00;90.80;;;;;;5003403;28;20518;-70
2022/01/24 06:39:32;;;;;;;46.78;20.85;;;-5.90;91.10;;;;;;5001017;28;20166;-70
2022/01/24 06:42:21;;;;;;;40.95;22.17;;;-5.90;91.00;;;;;;4999521;28;20041;-71
2022/01/24 06:44:47;;;;;;;39.95;20.30;;;-5.90;91.10;;;;;;5000142;28;20131;-70
2022/01/24 06:47:13;;;;;;;64.93;31.17;;;-6.00;91.10;;;;;;5006156;28;20057;-71
2022/01/24 06:49:38;;;;;;;162.73;93.10;;;-6.00;90.60;;;;;;5004767;28;20461;-70
2022/01/24 06:52:06;;;;;;;64.15;37.28;;;-6.10;90.90;;;;;;5002944;28;20030;-70
2022/01/24 06:54:33;;;;;;;18.95;10.57;;;-6.10;91.00;;;;;;4999629;28;20042;-71
2022/01/24 06:56:59;;;;;;;18.05;9.43;;;-6.10;90.40;;;;;;5003612;28;20512;-71
2022/01/24 06:59:24;;;;;;;19.92;8.52;;;-6.20;90.30;;;;;;5002591;28;20026;-70
2022/01/24 07:01:50;;;;;;;14.30;7.45;;;-6.30;90.70;;;;;;5003261;28;20040;-70
2022/01/24 07:04:16;;;;;;;16.20;9.40;;;-6.30;90.90;;;;;;5003047;28;20038;-70
2022/01/24 07:06:41;;;;;;;14.27;8.45;;;-6.30;90.90;;;;;;5005257;28;20034;-70
2022/01/24 07:09:07;;;;;;;17.15;9.13;;;-6.30;91.00;;;;;;5003234;28;20109;-69
2022/01/24 07:11:33;;;;;;;16.33;8.85;;;-6.10;91.20;;;;;;5002553;28;20532;-70
2022/01/24 07:13:58;;;;;;;18.40;9.90;;;-6.00;91.40;;;;;;5005566;28;20120;-70
2022/01/24 07:16:35;;;;;;;20.65;10.45;;;-6.00;91.40;;;;;;5002290;28;20033;-70
2022/01/24 07:19:03;;;;;;;22.15;11.82;;;-5.90;91.30;;;;;;5002080;28;20065;-70
2022/01/24 07:21:29;;;;;;;28.45;13.63;;;-5.70;91.20;;;;;;5004670;28;20037;-70
2022/01/24 07:23:56;;;;;;;43.88;20.38;;;-5.40;91.10;;;;;;5002416;28;20103;-67
2022/01/24 07:26:21;;;;;;;61.42;25.60;;;-5.20;91.00;;;;;;5001822;28;20034;-70
2022/01/24 07:28:47;;;;;;;49.58;21.88;;;-5.00;91.80;;;;;;5002155;28;20378;-70
2022/01/24 07:31:12;;;;;;;59.20;25.05;;;-4.90;91.20;;;;;;5004068;28;20083;-70
2022/01/24 07:33:40;;;;;;;80.72;33.20;;;-5.10;91.60;;;;;;5001044;28;20061;-70
2022/01/24 07:36:06;;;;;;;102.45;43.75;;;-5.40;91.60;;;;;;5001578;28;20052;-70
2022/01/24 07:38:32;;;;;;;110.40;51.50;;;-5.60;92.30;;;;;;5003970;28;20034;-70
2022/01/24 07:41:00;;;;;;;159.98;60.30;;;-5.50;93.30;;;;;;4999312;28;20026;-70
2022/01/24 07:43:25;;;;;;;146.57;62.80;;;-5.00;94.20;;;;;;4997006;28;20042;-71
2022/01/24 07:45:51;;;;;;;110.20;48.95;;;-4.80;93.10;;;;;;5005374;28;20041;-70
2022/01/24 07:48:20;;;;;;;60.10;31.73;;;-4.90;93.30;;;;;;4999010;28;20025;-70
2022/01/24 07:50:47;;;;;;;75.25;36.70;;;-4.60;93.90;;;;;;5002117;28;20168;-70
2022/01/24 07:53:14;;;;;;;74.88;35.25;;;-4.40;93.90;;;;;;5002929;28;20410;-70
2022/01/24 07:55:40;;;;;;;86.10;44.67;;;-4.20;95.60;;;;;;5000053;28;20073;-70
2022/01/24 07:58:06;;;;;;;75.60;39.33;;;-4.10;96.10;;;;;;5001758;28;20027;-70
2022/01/24 08:00:32;;;;;;;77.38;38.90;;;-4.00;96.30;;;;;;5000656;28;20030;-70
2022/01/24 08:02:58;;;;;;;78.85;39.10;;;-3.90;96.50;;;;;;5000173;28;20052;-70
2022/01/24 08:05:25;;;;;;;77.53;43.20;;;-3.70;96.50;;;;;;5000156;28;20030;-70
2022/01/24 08:07:51;;;;;;;81.68;44.65;;;-3.60;96.20;;;;;;5000960;28;20038;-70
2022/01/24 08:10:17;;;;;;;75.85;41.45;;;-3.50;95.90;;;;;;5002542;28;20515;-70
2022/01/24 08:12:44;;;;;;;77.63;41.22;;;-3.40;95.70;;;;;;5000530;28;20030;-70
2022/01/24 08:15:17;;;;;;;76.03;41.50;;;-3.20;95.00;;;;;;5003439;28;20492;-69
2022/01/24 08:17:43;;;;;;;73.35;39.53;;;-3.10;94.80;;;;;;5001411;28;20041;-69
2022/01/24 08:20:11;;;;;;;67.30;36.42;;;-3.00;94.90;;;;;;4999065;28;20605;-70
2022/01/24 08:22:37;;;;;;;66.32;36.90;;;-2.90;94.40;;;;;;5002037;28;20045;-69
2022/01/24 08:25:04;;;;;;;54.58;33.28;;;-2.60;94.80;;;;;;4997922;28;20128;-69
2022/01/24 08:27:31;;;;;;;64.90;36.47;;;-2.40;98.70;;;;;;4999386;28;20061;-68
2022/01/24 08:29:57;;;;;;;69.85;37.00;;;-2.20;98.10;;;;;;5000229;28;20093;-69
2022/01/24 08:32:23;;;;;;;67.35;36.45;;;-2.10;98.10;;;;;;5000400;28;20025;-69
2022/01/24 08:34:49;;;;;;;53.03;31.65;;;-2.10;91.10;;;;;;5001565;28;20026;-69
2022/01/24 08:37:15;;;;;;;50.05;30.88;;;-1.90;90.60;;;;;;4999042;28;20030;-70
2022/01/24 08:39:43;;;;;;;52.40;31.05;;;-1.80;90.50;;;;;;4997211;28;20026;-69
2022/01/24 08:42:19;;;;;;;49.25;27.30;;;-1.70;90.70;;;;;;5001344;28;20512;-70
2022/01/24 08:47:31;;;;;;;28.38;16.80;;;-1.60;90.90;;;;;;5003261;28;20036;-70
2022/01/24 08:49:58;;;;;;;21.60;13.02;;;-1.40;90.20;;;;;;5002765;28;20030;-70
2022/01/24 08:52:26;;;;;;;19.25;11.68;;;-1.20;89.30;;;;;;5001906;28;20117;-70
2022/01/24 08:54:52;;;;;;;20.88;11.85;;;-1.00;88.70;;;;;;5003122;28;20046;-70
2022/01/24 08:57:25;;;;;;;20.27;11.10;;;-0.60;90.40;;;;;;5003987;28;20069;-70
2022/01/24 08:59:55;;;;;;;18.30;9.98;;;-0.40;86.80;;;;;;5003484;28;20129;-70
2022/01/24 09:02:22;;;;;;;15.50;9.43;;;-0.20;85.50;;;;;;5006038;28;20461;-70
2022/01/24 09:04:48;;;;;;;16.35;9.63;;;0.10;84.00;;;;;;5001220;28;20066;-70
2022/01/24 09:07:16;;;;;;;20.50;9.35;;;0.40;83.00;;;;;;5008870;28;20086;-70
2022/01/24 09:09:41;;;;;;;17.85;9.93;;;0.60;81.90;;;;;;5004801;28;20045;-70
2022/01/24 09:12:11;;;;;;;15.45;9.02;;;0.70;81.90;;;;;;5005942;28;20042;-69
2022/01/24 09:14:43;;;;;;;10.95;6.63;;;0.80;81.30;;;;;;5004622;28;20120;-70
2022/01/24 09:17:09;;;;;;;10.13;6.68;;;0.90;79.10;;;;;;5006470;28;20038;-70
2022/01/24 09:19:35;;;;;;;10.52;6.88;;;1.00;78.10;;;;;;5003354;28;20034;-70
2022/01/24 09:22:01;;;;;;;12.45;6.55;;;1.00;77.60;;;;;;5006098;28;20037;-70
2022/01/24 09:24:27;;;;;;;10.73;6.85;;;1.10;79.10;;;;;;5004366;28;20105;-70
2022/01/24 09:26:52;;;;;;;9.38;7.18;;;1.20;78.00;;;;;;5006166;28;20042;-70
2022/01/24 09:29:18;;;;;;;10.98;7.45;;;1.20;77.70;;;;;;5004756;28;20030;-70
2022/01/24 09:31:44;;;;;;;11.57;7.53;;;1.10;77.30;;;;;;5004099;28;20030;-69
2022/01/24 09:34:09;;;;;;;11.52;7.70;;;1.00;78.00;;;;;;5004657;28;20049;-69
2022/01/24 09:36:35;;;;;;;11.23;7.82;;;0.90;78.20;;;;;;5003250;28;20053;-70
2022/01/24 09:39:02;;;;;;;9.93;6.80;;;0.80;79.90;;;;;;5008048;28;20062;-69
2022/01/24 09:41:27;;;;;;;11.68;7.13;;;0.80;79.80;;;;;;5002008;28;20037;-70
2022/01/24 09:43:53;;;;;;;16.48;8.93;;;0.80;79.80;;;;;;5001509;28;20038;-70
2022/01/24 09:46:19;;;;;;;10.35;7.05;;;0.80;79.70;;;;;;5001785;28;20089;-69
2022/01/24 09:48:44;;;;;;;10.18;5.72;;;0.70;80.10;;;;;;5002804;28;20030;-69
2022/01/24 09:51:10;;;;;;;11.40;6.75;;;0.60;81.80;;;;;;5007134;28;20032;-68
2022/01/24 09:53:37;;;;;;;14.27;9.50;;;0.60;81.80;;;;;;5005525;28;20034;-69
2022/01/24 09:56:04;;;;;;;11.07;6.97;;;0.70;81.80;;;;;;5004376;28;20030;-69
2022/01/24 09:58:32;;;;;;;9.52;6.18;;;0.70;81.10;;;;;;5000900;28;20037;-69
2022/01/24 10:01:01;;;;;;;11.38;6.07;;;0.70;80.00;;;;;;5003316;28;20037;-68
2022/01/24 10:03:27;;;;;;;7.18;4.85;;;0.80;80.10;;;;;;5003584;28;20472;-70
2022/01/24 10:05:55;;;;;;;7.90;5.40;;;0.80;79.50;;;;;;5004832;28;20031;-69
2022/01/24 10:08:24;;;;;;;8.55;4.97;;;0.80;78.90;;;;;;5001879;28;20032;-70
2022/01/24 10:10:52;;;;;;;5.90;4.47;;;0.90;77.80;;;;;;5000440;28;20412;-70
2022/01/24 10:19:15;;;;;;;4.63;3.30;;;0.70;71.10;;;;;;5004926;28;20112;-69
2022/01/24 10:21:53;;;;;;;5.53;3.83;;;0.60;69.70;;;;;;5003723;28;20120;-68
2022/01/24 10:24:40;;;;;;;6.95;4.55;;;0.50;69.60;;;;;;5002477;28;20049;-70
2022/01/24 10:27:15;;;;;;;6.32;3.60;;;0.40;71.30;;;;;;5001676;28;20038;-70
2022/01/24 10:29:45;;;;;;;4.40;2.65;;;0.50;71.10;;;;;;5002046;28;20022;-70
2022/01/24 10:32:26;;;;;;;3.58;2.42;;;0.60;68.50;;;;;;4999128;28;20022;-69
2022/01/24 10:34:51;;;;;;;4.97;2.97;;;0.70;67.70;;;;;;4999166;28;20037;-70
2022/01/24 10:37:22;;;;;;;12.80;6.95;;;0.70;67.00;;;;;;4999932;28;20033;-70
2022/01/24 10:39:59;;;;;;;4.38;3.42;;;0.80;66.30;;;;;;5002184;28;20088;-69
2022/01/24 10:44:58;;;;;;;5.22;2.78;;;1.00;64.50;;;;;;5000111;28;20377;-68
2022/01/24 10:47:31;;;;;;;3.83;2.75;;;1.00;66.00;;;;;;4999634;28;20124;-69
2022/01/24 10:49:59;;;;;;;4.18;2.88;;;1.10;65.00;;;;;;5003125;28;21253;-70
2022/01/24 10:52:27;;;;;;;5.07;2.88;;;1.20;65.20;;;;;;5007148;28;20034;-70
2022/01/24 10:55:29;;;;;;;4.20;2.97;;;1.20;63.50;;;;;;5000015;28;20045;-70
2022/01/24 10:58:14;;;;;;;4.97;3.47;;;1.30;64.10;;;;;;5002545;28;20030;-70
2022/01/24 11:00:41;;;;;;;6.57;4.47;;;1.40;62.60;;;;;;5000945;28;20037;-70
2022/01/24 11:03:13;;;;;;;4.25;2.75;;;1.40;62.90;;;;;;5006741;28;20141;-70
2022/01/24 11:05:41;;;;;;;3.80;2.75;;;1.50;61.80;;;;;;5003309;28;20149;-70
2022/01/24 11:08:15;;;;;;;4.82;2.40;;;1.60;60.90;;;;;;5004491;28;20113;-70
2022/01/24 11:10:49;;;;;;;4.03;2.72;;;1.50;60.90;;;;;;5002435;28;20030;-71
2022/01/24 11:13:19;;;;;;;5.43;2.78;;;1.60;60.00;;;;;;5003043;28;20030;-70
2022/01/24 11:15:48;;;;;;;4.13;2.50;;;1.60;59.30;;;;;;5002523;28;20201;-70
2022/01/24 11:18:16;;;;;;;3.60;2.67;;;1.70;58.90;;;;;;5005610;28;20030;-70
2022/01/24 11:20:45;;;;;;;4.13;2.03;;;1.70;58.50;;;;;;5003349;28;20022;-70
2022/01/24 11:23:12;;;;;;;2.88;2.10;;;1.80;57.50;;;;;;5002364;28;20029;-70
2022/01/24 11:25:41;;;;;;;3.85;2.50;;;1.70;56.80;;;;;;5003652;28;20072;-70
2022/01/24 11:28:07;;;;;;;5.20;2.75;;;1.70;58.20;;;;;;5006685;28;20049;-70
2022/01/24 11:30:55;;;;;;;3.95;2.78;;;1.80;57.30;;;;;;5000179;28;20113;-70
2022/01/24 11:33:37;;;;;;;4.57;3.30;;;1.70;57.20;;;;;;5002560;28;20053;-70
2022/01/24 11:36:04;;;;;;;;;;;1.80;57.90;;;;;;5004954;28;20083;-70
2022/01/24 11:38:32;;;;;;;6.13;3.60;;;1.80;58.10;;;;;;5004298;28;19920;-70
2022/01/24 11:41:02;;;;;;;10.05;9.15;;;1.90;58.20;;;;;;5002466;28;20061;-70
2022/01/24 11:43:35;;;;;;;4.30;3.50;;;1.80;58.10;;;;;;5000612;28;20029;-69
2022/01/24 11:46:07;;;;;;;6.28;4.13;;;1.80;57.80;;;;;;5003175;28;20564;-70
2022/01/24 11:48:33;;;;;;;;;;;1.70;58.70;;;;;;5006426;28;20026;-69
2022/01/24 11:51:17;;;;;;;4.28;2.90;;;1.70;59.50;;;;;;5003190;28;19914;-70
2022/01/24 11:53:45;;;;;;;5.53;3.17;;;1.80;58.30;;;;;;5004223;28;20030;-70
2022/01/24 11:56:23;;;;;;;4.80;3.08;;;1.80;57.90;;;;;;5001481;28;20077;-70
2022/01/24 11:58:50;;;;;;;6.78;4.20;;;1.80;58.30;;;;;;5003731;28;20668;-70
2022/01/24 12:01:38;;;;;;;4.90;3.40;;;1.80;59.10;;;;;;5001560;28;20026;-70
2022/01/24 12:04:04;;;;;;;4.97;3.20;;;1.90;57.00;;;;;;5002538;28;20424;-70
2022/01/24 12:06:30;;;;;;;4.82;3.13;;;1.90;56.80;;;;;;5002492;28;20110;-70
2022/01/24 12:09:05;;;;;;;7.70;4.00;;;2.00;56.20;;;;;;5000723;28;20041;-70
2022/01/24 12:11:35;;;;;;;4.88;3.10;;;2.00;55.90;;;;;;5004790;28;20018;-70
2022/01/24 12:14:19;;;;;;;2.75;2.05;;;2.00;56.20;;;;;;5001541;28;20148;-70
2022/01/24 12:16:46;;;;;;;3.70;2.58;;;2.00;55.70;;;;;;5001009;28;20909;-70
2022/01/24 12:19:12;;;;;;;4.20;2.20;;;2.10;55.30;;;;;;4999823;28;20033;-70
2022/01/24 12:21:40;;;;;;;3.05;2.33;;;2.10;54.70;;;;;;5002508;28;20026;-70
2022/01/24 12:24:15;;;;;;;3.15;2.10;;;2.10;54.70;;;;;;5015998;28;20468;-70
2022/01/24 12:26:47;;;;;;;3.38;2.42;;;2.10;54.60;;;;;;5002014;28;20052;-70
2022/01/24 12:29:27;;;;;;;4.70;2.53;;;2.10;55.10;;;;;;5000782;28;20105;-70
2022/01/24 12:32:03;;;;;;;2.78;2.33;;;2.10;54.30;;;;;;5001614;28;20121;-70
2022/01/24 12:34:36;;;;;;;2.88;2.38;;;2.10;54.70;;;;;;5001185;28;20041;-69
2022/01/24 12:37:21;;;;;;;4.03;2.55;;;2.10;54.80;;;;;;5001064;28;20084;-70
2022/01/24 12:39:57;;;;;;;46.30;36.03;;;2.20;54.50;;;;;;5000579;28;20698;-69
2022/01/24 12:42:47;;;;;;;5.45;3.65;;;2.20;54.30;;;;;;5004091;28;20479;-69
2022/01/24 12:48:18;;;;;;;4.38;3.38;;;2.20;53.40;;;;;;5002667;28;20142;-70
2022/01/24 12:50:51;;;;;;;3.90;2.50;;;2.30;53.60;;;;;;5000515;28;20057;-70
2022/01/24 12:53:18;;;;;;;3.92;2.40;;;2.30;53.20;;;;;;4999057;28;20095;-70
2022/01/24 12:55:55;;;;;;;3.80;2.78;;;2.30;53.00;;;;;;4999498;28;20054;-71
2022/01/24 12:58:33;;;;;;;6.45;4.85;;;2.20;53.80;;;;;;4999115;28;20532;-72
2022/01/24 13:00:59;;;;;;;5.82;2.28;;;2.20;54.00;;;;;;4994851;28;20026;-71
2022/01/24 13:03:24;;;;;;;3.45;2.40;;;2.30;53.90;;;;;;5000686;28;20041;-72
2022/01/24 13:05:50;;;;;;;4.32;2.58;;;2.40;54.00;;;;;;4998117;28;20042;-71
2022/01/24 13:08:17;;;;;;;5.38;2.80;;;2.40;53.20;;;;;;5003106;28;20025;-71
2022/01/24 13:10:47;;;;;;;2.22;2.00;;;2.30;52.30;;;;;;5000029;28;20026;-72
2022/01/24 13:13:15;;;;;;;4.70;3.28;;;2.30;52.90;;;;;;5001320;28;20045;-71
2022/01/24 13:21:27;;;;;;;6.50;3.88;;;2.40;53.10;;;;;;4998505;28;20783;-69
2022/01/24 13:24:00;;;;;;;5.20;3.33;;;2.60;52.70;;;;;;5002394;28;20120;-69
2022/01/24 13:26:26;;;;;;;5.15;2.85;;;2.70;52.70;;;;;;4998472;28;20022;-70
2022/01/24 13:29:04;;;;;;;3.42;2.60;;;2.70;52.50;;;;;;5002438;28;20049;-70
2022/01/24 13:31:29;;;;;;;10.98;2.20;;;2.80;52.90;;;;;;5000123;28;20095;-69
2022/01/24 13:33:57;;;;;;;4.53;3.00;;;2.80;52.90;;;;;;5000541;28;20524;-70
2022/01/24 13:36:23;;;;;;;3.40;2.60;;;2.90;53.50;;;;;;4999067;28;20034;-71
2022/01/24 13:38:50;;;;;;;4.03;2.80;;;2.90;53.50;;;;;;4999256;28;20033;-70
2022/01/24 13:41:24;;;;;;;4.63;2.83;;;3.00;52.60;;;;;;4998929;28;20236;-69
2022/01/24 13:44:04;;;;;;;3.75;2.53;;;3.10;52.50;;;;;;4998229;28;20041;-70
2022/01/24 13:46:41;;;;;;;4.63;3.10;;;3.30;51.50;;;;;;5005149;28;20078;-74
2022/01/24 13:49:12;;;;;;;5.15;3.17;;;3.50;51.20;;;;;;5006853;28;20038;-74
2022/01/24 13:51:41;;;;;;;5.40;3.30;;;3.70;51.50;;;;;;5003656;28;20057;-74
2022/01/24 13:54:29;;;;;;;6.45;3.58;;;4.30;50.10;;;;;;5001736;28;20052;-69
2022/01/24 13:57:00;;;;;;;7.78;4.72;;;5.30;48.40;;;;;;5003644;28;20559;-70
2022/01/24 13:59:26;;;;;;;14.38;9.25;;;6.40;45.80;;;;;;5006262;28;20105;-71
2022/01/24 14:02:11;;;;;;;5.97;3.65;;;7.20;44.60;;;;;;5003591;28;20105;-68
2022/01/24 14:04:46;;;;;;;4.55;3.58;;;8.10;59.90;;;;;;5001532;28;20641;-69
2022/01/24 14:07:13;;;;;;;4.32;3.10;;;9.30;42.80;;;;;;5001099;28;20034;-70
2022/01/24 14:09:57;;;;;;;9.57;4.13;;;10.00;38.70;;;;;;5006203;28;20054;-69
2022/01/24 14:12:39;;;;;;;7.57;4.57;;;10.90;36.60;;;;;;5002584;28;20072;-70
2022/01/24 14:15:28;;;;;;;3.70;3.05;;;11.60;34.70;;;;;;5003551;28;20033;-70
2022/01/24 14:20:34;;;;;;;5.22;3.80;;;12.60;32.30;;;;;;5004009;28;20497;-70
2022/01/24 14:23:01;;;;;;;5.40;4.15;;;12.60;31.50;;;;;;5000996;28;20197;-71
2022/01/24 14:25:34;;;;;;;4.38;3.40;;;12.40;32.30;;;;;;5001270;28;20060;-70
2022/01/24 14:28:06;;;;;;;3.85;3.03;;;11.90;33.00;;;;;;5006482;28;20052;-71
2022/01/24 14:30:40;;;;;;;4.38;3.40;;;11.70;33.40;;;;;;5001274;28;20025;-74
2022/01/24 14:33:12;;;;;;;3.67;3.22;;;;;;;;;;5004488;28;20044;-73
2022/01/24 14:35:57;;;;;;;4.43;3.75;;;9.90;33.60;;;;;;5003905;28;20376;-70
2022/01/24 14:38:31;;;;;;;8.18;4.18;;;9.20;35.80;;;;;;5000803;28;20031;-72
2022/01/24 14:41:01;;;;;;;4.78;3.30;;;8.90;36.70;;;;;;5000848;28;20030;-72
2022/01/24 14:46:18;;;;;;;4.68;3.80;;;8.00;38.40;;;;;;5001188;28;20643;-71
2022/01/24 14:48:52;;;;;;;6.35;3.65;;;7.40;38.20;;;;;;5000114;28;20026;-71
2022/01/24 14:51:23;;;;;;;7.72;3.75;;;6.80;40.00;;;;;;5002344;28;20029;-69